createdAt,value
2022-08-28T00:01:37.108Z,13.85
2022-08-28T00:04:44.904Z,14.77
2022-08-28T00:07:51.292Z,13.80
2022-08-28T00:11:00.635Z,13.93
2022-08-28T00:14:12.219Z,13.88
2022-08-28T00:17:25.411Z,13.55
2022-08-28T00:20:32.341Z,12.57
2022-08-28T00:23:43.786Z,13.02
2022-08-28T00:27:05.560Z,14.05
2022-08-28T00:30:20.187Z,12.60
2022-08-28T00:33:34.398Z,16.55
2022-08-28T00:36:41.840Z,13.82
2022-08-28T00:39:50.327Z,14.63
2022-08-28T00:43:00.606Z,14.95
2022-08-28T00:46:15.926Z,13.05
2022-08-28T00:49:25.860Z,12.15
2022-08-28T00:52:33.376Z,14.25
2022-08-28T00:55:43.255Z,15.70
2022-08-28T00:58:52.485Z,15.93
2022-08-28T01:02:01.588Z,15.27
2022-08-28T01:05:09.746Z,20.45
2022-08-28T01:08:16.064Z,12.98
2022-08-28T01:11:24.895Z,17.70
2022-08-28T01:14:35.129Z,14.27
2022-08-28T01:17:46.743Z,13.25
2022-08-28T01:20:59.155Z,18.00
2022-08-28T01:24:10.437Z,16.80
2022-08-28T01:27:16.737Z,17.15
2022-08-28T01:30:24.953Z,14.43
2022-08-28T01:33:32.293Z,14.48
2022-08-28T01:36:41.683Z,13.38
2022-08-28T01:39:52.104Z,14.48
2022-08-28T01:42:56.338Z,15.73
2022-08-28T01:46:04.545Z,15.02
2022-08-28T01:49:13.935Z,15.75
2022-08-28T01:52:26.341Z,15.30
2022-08-28T01:55:39.016Z,17.85
2022-08-28T01:58:45.774Z,18.52
2022-08-28T02:01:52.097Z,16.15
2022-08-28T02:04:59.143Z,18.33
2022-08-28T02:08:06.917Z,18.48
2022-08-28T02:11:17.084Z,18.88
2022-08-28T02:14:24.254Z,18.10
2022-08-28T02:17:34.807Z,21.10
2022-08-28T02:20:45.404Z,18.23
2022-08-28T02:23:52.691Z,19.58
2022-08-28T02:27:00.811Z,18.08
2022-08-28T02:30:06.385Z,18.90
2022-08-28T02:33:12.940Z,18.15
2022-08-28T02:36:19.150Z,19.15
2022-08-28T02:39:34.328Z,19.23
2022-08-28T02:42:46.996Z,22.58
2022-08-28T02:45:56.799Z,18.63
2022-08-28T02:49:15.747Z,19.65
2022-08-28T02:52:22.003Z,19.42
2022-08-28T02:55:34.095Z,20.38
2022-08-28T02:58:41.026Z,19.05
2022-08-28T03:01:45.360Z,20.02
2022-08-28T03:04:51.737Z,18.30
2022-08-28T03:07:57.913Z,17.75
2022-08-28T03:11:04.652Z,19.80
2022-08-28T03:14:12.882Z,24.67
2022-08-28T03:17:19.489Z,25.50
2022-08-28T03:20:26.083Z,24.70
2022-08-28T03:23:32.856Z,24.08
2022-08-28T03:26:39.539Z,27.42
2022-08-28T03:29:47.964Z,25.00
2022-08-28T03:32:54.856Z,22.08
2022-08-28T03:36:04.609Z,24.25
2022-08-28T03:39:12.218Z,24.00
2022-08-28T03:42:17.730Z,22.90
2022-08-28T03:45:26.129Z,26.42
2022-08-28T03:48:36.449Z,24.52
2022-08-28T03:51:43.872Z,25.52
2022-08-28T03:54:48.860Z,24.73
2022-08-28T03:57:55.191Z,26.02
2022-08-28T04:01:23.015Z,23.08
2022-08-28T04:04:28.429Z,23.23
2022-08-28T04:07:39.987Z,24.63
2022-08-28T04:10:46.741Z,22.90
2022-08-28T04:13:51.723Z,26.67
2022-08-28T04:17:01.503Z,25.83
2022-08-28T04:20:11.012Z,22.48
2022-08-28T04:23:17.090Z,26.83
2022-08-28T04:26:27.211Z,22.83
2022-08-28T04:29:33.810Z,28.27
2022-08-28T04:32:42.246Z,27.10
2022-08-28T04:35:51.644Z,25.52
2022-08-28T04:38:59.697Z,24.38
2022-08-28T04:42:07.298Z,26.00
2022-08-28T04:45:13.546Z,23.27
2022-08-28T04:48:18.139Z,23.65
2022-08-28T04:51:21.392Z,23.75
2022-08-28T04:54:24.247Z,23.50
2022-08-28T04:57:27.100Z,23.42
2022-08-28T05:00:29.982Z,24.17
2022-08-28T05:03:34.207Z,20.95
2022-08-28T05:06:37.669Z,19.80
2022-08-28T05:09:41.129Z,21.08
2022-08-28T05:12:44.391Z,21.23
2022-08-28T05:15:50.288Z,19.83
2022-08-28T05:18:54.613Z,20.90
2022-08-28T05:21:57.423Z,20.25
2022-08-28T05:25:02.135Z,21.67
2022-08-28T05:28:11.430Z,23.05
2022-08-28T05:31:17.091Z,25.05
2022-08-28T05:34:21.791Z,24.98
2022-08-28T05:37:24.784Z,22.15
2022-08-28T05:40:27.834Z,22.10
2022-08-28T05:43:31.575Z,23.35
2022-08-28T05:46:35.052Z,23.90
2022-08-28T05:49:42.492Z,22.63
2022-08-28T05:52:47.448Z,22.23
2022-08-28T05:55:51.947Z,20.88
2022-08-28T05:58:55.043Z,20.85
2022-08-28T06:02:00.944Z,21.63
2022-08-28T06:05:09.043Z,19.27
2022-08-28T06:08:15.954Z,22.00
2022-08-28T06:11:21.931Z,20.30
2022-08-28T06:14:28.143Z,19.25
2022-08-28T06:17:31.102Z,21.63
2022-08-28T06:20:41.286Z,19.67
2022-08-28T06:23:44.741Z,25.55
2022-08-28T06:26:47.744Z,21.70
2022-08-28T06:29:50.806Z,20.98
2022-08-28T06:32:53.834Z,19.02
2022-08-28T06:35:58.292Z,19.17
2022-08-28T06:39:02.818Z,16.98
2022-08-28T06:42:06.830Z,18.40
2022-08-28T06:45:11.305Z,16.15
2022-08-28T06:48:17.282Z,17.40
2022-08-28T06:51:24.987Z,16.17
2022-08-28T06:54:30.910Z,15.98
2022-08-28T06:57:33.919Z,16.70
2022-08-28T07:00:38.420Z,15.68
2022-08-28T07:03:44.313Z,15.90
2022-08-28T07:06:54.079Z,15.50
2022-08-28T07:09:57.660Z,15.18
2022-08-28T07:13:00.937Z,19.25
2022-08-28T07:16:04.342Z,16.48
2022-08-28T07:19:08.627Z,17.77
2022-08-28T07:22:14.746Z,15.18
2022-08-28T07:25:17.851Z,15.85
2022-08-28T07:28:22.318Z,15.13
2022-08-28T07:31:27.340Z,13.82
2022-08-28T07:34:30.568Z,14.32
2022-08-28T07:37:34.728Z,13.65
2022-08-28T07:40:38.050Z,15.68
2022-08-28T07:43:58.635Z,12.60
2022-08-28T07:47:05.585Z,16.52
2022-08-28T07:50:08.866Z,15.07
2022-08-28T07:53:13.035Z,11.93
2022-08-28T07:56:15.794Z,17.65
2022-08-28T07:59:20.198Z,14.20
2022-08-28T08:02:24.872Z,15.57
2022-08-28T08:05:27.913Z,13.43
2022-08-28T08:08:33.967Z,13.55
2022-08-28T08:11:36.891Z,11.77
2022-08-28T08:14:40.571Z,12.35
2022-08-28T08:17:45.095Z,15.20
2022-08-28T08:20:47.919Z,11.18
2022-08-28T08:23:52.483Z,13.73
2022-08-28T08:26:59.945Z,13.63
2022-08-28T08:30:03.611Z,13.25
2022-08-28T08:33:06.524Z,18.50
2022-08-28T08:36:10.784Z,14.25
2022-08-28T08:39:16.168Z,12.30
2022-08-28T08:42:25.486Z,13.55
2022-08-28T08:45:31.141Z,12.27
2022-08-28T08:48:36.548Z,10.98
2022-08-28T08:51:43.096Z,13.43
2022-08-28T08:55:06.071Z,12.10
2022-08-28T08:58:14.004Z,14.10
2022-08-28T09:01:24.513Z,11.77
2022-08-28T09:04:36.571Z,11.63
2022-08-28T09:07:43.577Z,11.55
2022-08-28T09:11:04.544Z,12.25
2022-08-28T09:14:14.322Z,13.10
2022-08-28T09:17:24.671Z,9.70
2022-08-28T09:20:32.784Z,11.88
2022-08-28T09:23:36.644Z,11.20
2022-08-28T09:26:41.336Z,11.70
2022-08-28T09:29:56.070Z,13.85
2022-08-28T09:33:01.175Z,10.77
2022-08-28T09:36:24.314Z,10.80
2022-08-28T09:39:29.716Z,10.63
2022-08-28T09:42:51.781Z,8.23
2022-08-28T09:46:02.894Z,10.57
2022-08-28T09:49:10.698Z,9.18
2022-08-28T09:52:25.099Z,10.90
2022-08-28T09:55:37.084Z,10.40
2022-08-28T09:58:44.854Z,9.00
2022-08-28T10:02:14.715Z,13.38
2022-08-28T10:05:35.799Z,9.55
2022-08-28T10:08:54.909Z,12.52
2022-08-28T10:12:05.668Z,11.45
2022-08-28T10:15:19.055Z,13.98
2022-08-28T10:18:35.723Z,14.63
2022-08-28T10:21:49.782Z,11.93
2022-08-28T10:25:08.867Z,10.43
2022-08-28T10:28:26.174Z,13.18
2022-08-28T10:31:39.180Z,11.55
2022-08-28T10:34:55.686Z,11.98
2022-08-28T10:38:09.663Z,13.23
2022-08-28T10:41:18.293Z,9.68
2022-08-28T10:44:26.056Z,9.77
2022-08-28T10:47:30.715Z,9.80
2022-08-28T10:50:47.011Z,10.90
2022-08-28T10:53:52.963Z,8.15
2022-08-28T10:56:59.464Z,11.18
2022-08-28T11:00:09.561Z,10.88
2022-08-28T11:03:33.565Z,8.07
2022-08-28T11:06:41.901Z,9.75
2022-08-28T11:09:48.341Z,11.57
2022-08-28T11:12:53.008Z,9.00
2022-08-28T11:15:55.835Z,7.82
2022-08-28T11:19:17.486Z,7.07
2022-08-28T11:22:23.836Z,7.82
2022-08-28T11:25:43.143Z,7.15
2022-08-28T11:28:47.672Z,10.27
2022-08-28T11:32:37.026Z,6.03
2022-08-28T11:35:44.940Z,6.90
2022-08-28T11:39:06.672Z,7.10
2022-08-28T11:42:35.985Z,11.02
2022-08-28T11:46:11.068Z,6.03
2022-08-28T11:49:45.088Z,7.28
2022-08-28T11:53:21.873Z,7.20
2022-08-28T11:56:48.520Z,8.55
2022-08-28T12:00:06.109Z,8.38
2022-08-28T12:03:15.128Z,8.68
2022-08-28T12:06:50.553Z,7.10
2022-08-28T12:09:53.626Z,7.85
2022-08-28T12:12:58.365Z,7.82
2022-08-28T12:16:06.287Z,6.82
2022-08-28T12:19:10.123Z,7.63
2022-08-28T12:22:17.105Z,9.38
2022-08-28T12:25:27.955Z,7.18
2022-08-28T12:28:33.065Z,7.85
2022-08-28T12:32:14.856Z,6.82
2022-08-28T12:35:20.551Z,7.85
2022-08-28T12:38:25.507Z,7.10
2022-08-28T12:41:28.843Z,6.60
2022-08-28T12:44:33.534Z,5.88
2022-08-28T12:47:37.777Z,7.00
2022-08-28T12:50:40.970Z,9.57
2022-08-28T12:53:47.651Z,5.00
2022-08-28T12:56:50.970Z,5.70
2022-08-28T12:59:55.893Z,7.70
2022-08-28T13:02:59.012Z,4.95
2022-08-28T13:06:06.366Z,7.82
2022-08-28T13:09:17.056Z,6.00
2022-08-28T13:12:23.964Z,6.00
2022-08-28T13:15:50.206Z,5.47
2022-08-28T13:19:10.671Z,4.43
2022-08-28T13:22:35.406Z,4.85
2022-08-28T13:25:40.622Z,5.22
2022-08-28T13:28:44.358Z,6.40
2022-08-28T13:31:57.350Z,6.47
2022-08-28T13:35:12.899Z,5.82
2022-08-28T13:38:17.659Z,6.40
2022-08-28T13:41:21.779Z,8.18
2022-08-28T13:44:33.303Z,5.55
2022-08-28T13:47:36.016Z,5.82
2022-08-28T13:50:40.318Z,5.40
2022-08-28T13:53:43.125Z,6.63
2022-08-28T13:56:47.770Z,5.88
2022-08-28T13:59:53.611Z,4.63
2022-08-28T14:03:16.260Z,5.75
2022-08-28T14:06:19.270Z,5.63
2022-08-28T14:09:27.016Z,5.10
2022-08-28T14:12:33.355Z,6.18
2022-08-28T14:15:36.467Z,7.65
2022-08-28T14:18:39.217Z,5.85
2022-08-28T14:21:45.198Z,6.63
2022-08-28T14:24:48.521Z,6.15
2022-08-28T14:27:52.867Z,7.03
2022-08-28T14:30:55.890Z,7.47
2022-08-28T14:33:59.034Z,4.93
2022-08-28T14:37:01.983Z,5.88
2022-08-28T14:40:06.624Z,4.70
2022-08-28T14:43:11.962Z,3.97
2022-08-28T14:46:19.427Z,6.90
2022-08-28T14:49:23.197Z,6.22
2022-08-28T14:52:26.393Z,4.80
2022-08-28T14:55:29.113Z,5.10
2022-08-28T14:58:33.636Z,4.97
2022-08-28T15:01:39.824Z,4.13
2022-08-28T15:04:44.221Z,6.40
2022-08-28T15:07:46.920Z,4.47
2022-08-28T15:10:51.074Z,5.38
2022-08-28T15:13:58.027Z,4.25
2022-08-28T15:17:00.801Z,6.18
2022-08-28T15:20:09.123Z,5.50
2022-08-28T15:23:21.117Z,4.25
2022-08-28T15:26:36.308Z,5.47
2022-08-28T15:29:47.503Z,5.78
2022-08-28T15:33:02.649Z,4.82
2022-08-28T15:36:12.297Z,8.95
2022-08-28T15:39:36.706Z,4.28
2022-08-28T15:42:48.075Z,5.65
2022-08-28T15:45:57.411Z,4.05
2022-08-28T15:49:07.798Z,6.22
2022-08-28T15:52:18.349Z,4.25
2022-08-28T15:55:27.378Z,4.72
2022-08-28T15:58:39.586Z,5.03
2022-08-28T16:01:56.903Z,4.22
2022-08-28T16:05:10.652Z,4.70
2022-08-28T16:08:27.774Z,8.32
2022-08-28T16:11:39.086Z,5.57
2022-08-28T16:14:55.280Z,4.18
2022-08-28T16:18:17.808Z,5.47
2022-08-28T16:21:30.422Z,4.97
2022-08-28T16:24:38.939Z,8.60
2022-08-28T16:27:46.336Z,4.40
2022-08-28T16:30:57.522Z,4.07
2022-08-28T16:34:19.608Z,5.80
2022-08-28T16:37:40.044Z,4.20
2022-08-28T16:40:50.627Z,4.30
2022-08-28T16:44:02.017Z,3.97
2022-08-28T16:47:09.444Z,4.90
2022-08-28T16:50:32.794Z,5.28
2022-08-28T16:53:48.383Z,4.97
2022-08-28T16:56:59.610Z,6.03
2022-08-28T17:00:09.365Z,8.13
2022-08-28T17:03:24.395Z,3.75
2022-08-28T17:06:42.418Z,4.40
2022-08-28T17:09:54.717Z,4.93
2022-08-28T17:13:02.204Z,5.55
2022-08-28T17:16:09.364Z,4.13
2022-08-28T17:19:16.467Z,6.93
2022-08-28T17:22:33.320Z,4.13
2022-08-28T17:25:39.912Z,4.95
2022-08-28T17:28:49.520Z,4.72
2022-08-28T17:31:57.425Z,4.60
2022-08-28T17:35:04.992Z,4.15
2022-08-28T17:38:27.569Z,5.07
2022-08-28T17:41:35.887Z,5.72
2022-08-28T17:44:43.690Z,6.03
2022-08-28T17:47:51.929Z,5.72
2022-08-28T17:50:58.906Z,5.97
2022-08-28T17:54:07.873Z,6.35
2022-08-28T17:57:17.585Z,5.15
2022-08-28T18:00:27.827Z,5.15
2022-08-28T18:03:37.724Z,8.73
2022-08-28T18:06:55.430Z,5.05
2022-08-28T18:10:04.215Z,4.68
2022-08-28T18:13:10.992Z,6.25
2022-08-28T18:16:19.690Z,4.30
2022-08-28T18:19:26.213Z,9.48
2022-08-28T18:22:33.000Z,5.15
2022-08-28T18:25:50.481Z,5.03
2022-08-28T18:28:57.322Z,5.60
2022-08-28T18:32:04.237Z,5.85
2022-08-28T18:35:11.377Z,4.60
2022-08-28T18:38:23.600Z,6.82
2022-08-28T18:41:44.215Z,6.40
2022-08-28T18:44:51.785Z,5.32
2022-08-28T18:48:00.123Z,5.03
2022-08-28T18:51:09.332Z,4.80
2022-08-28T18:54:18.897Z,4.65
2022-08-28T18:57:33.592Z,5.15
2022-08-28T19:00:45.343Z,6.57
2022-08-28T19:03:51.812Z,6.88
2022-08-28T19:07:00.896Z,4.57
2022-08-28T19:10:32.686Z,5.95
2022-08-28T19:13:45.626Z,6.45
2022-08-28T19:16:55.581Z,5.93
2022-08-28T19:20:05.538Z,5.80
2022-08-28T19:23:17.687Z,4.88
2022-08-28T19:26:29.742Z,10.05
2022-08-28T19:29:38.341Z,8.70
2022-08-28T19:32:47.069Z,7.85
2022-08-28T19:35:56.122Z,8.25
2022-08-28T19:39:03.905Z,5.53
2022-08-28T19:42:12.838Z,5.50
2022-08-28T19:45:24.145Z,5.35
2022-08-28T19:48:31.289Z,5.15
2022-08-28T19:51:39.990Z,6.95
2022-08-28T19:54:45.979Z,7.93
2022-08-28T19:57:53.718Z,10.60
2022-08-28T20:01:04.308Z,5.28
2022-08-28T20:04:14.599Z,6.63
2022-08-28T20:07:24.138Z,4.50
2022-08-28T20:10:35.863Z,6.05
2022-08-28T20:13:45.946Z,6.22
2022-08-28T20:16:56.390Z,6.95
2022-08-28T20:20:04.538Z,6.25
2022-08-28T20:23:11.195Z,5.07
2022-08-28T20:26:19.559Z,5.70
2022-08-28T20:29:26.757Z,7.63
2022-08-28T20:32:36.242Z,7.38
2022-08-28T20:35:49.274Z,8.48
2022-08-28T20:38:57.503Z,8.27
2022-08-28T20:42:07.025Z,9.13
2022-08-28T20:45:14.230Z,8.20
2022-08-28T20:48:29.783Z,8.15
2022-08-28T20:51:57.373Z,5.15
2022-08-28T20:55:05.479Z,7.00
2022-08-28T20:58:19.317Z,5.90
2022-08-28T21:01:32.010Z,9.52
2022-08-28T21:04:58.115Z,8.20
2022-08-28T21:08:20.821Z,8.40
2022-08-28T21:11:30.980Z,5.70
2022-08-28T21:14:39.246Z,10.55
2022-08-28T21:17:51.040Z,6.47
2022-08-28T21:21:05.963Z,7.25
2022-08-28T21:24:22.554Z,5.90
2022-08-28T21:27:43.660Z,7.93
2022-08-28T21:30:57.072Z,5.00
2022-08-28T21:34:18.871Z,7.55
2022-08-28T21:38:24.613Z,9.15
2022-08-28T21:41:47.107Z,5.13
2022-08-28T21:45:01.661Z,5.03
2022-08-28T21:48:10.739Z,7.68
2022-08-28T21:51:19.050Z,6.70
2022-08-28T21:54:28.011Z,6.85
2022-08-28T21:57:35.268Z,5.53
2022-08-28T22:00:41.453Z,4.72
2022-08-28T22:03:48.124Z,5.18
2022-08-28T22:06:54.603Z,8.13
2022-08-28T22:10:02.817Z,6.13
2022-08-28T22:13:09.815Z,4.97
2022-08-28T22:16:18.892Z,7.28
2022-08-28T22:19:29.441Z,5.30
2022-08-28T22:22:53.146Z,8.13
2022-08-28T22:26:16.230Z,8.32
2022-08-28T22:29:38.167Z,5.75
2022-08-28T22:32:48.958Z,5.45
2022-08-28T22:35:58.813Z,8.63
2022-08-28T22:39:16.248Z,6.82
2022-08-28T22:42:41.499Z,8.23
2022-08-28T22:46:03.216Z,7.10
2022-08-28T22:49:15.577Z,5.05
2022-08-28T22:52:32.496Z,7.72
2022-08-28T22:55:43.547Z,6.05
2022-08-28T22:59:04.734Z,5.50
2022-08-28T23:05:59.638Z,4.90
2022-08-28T23:09:09.978Z,7.38
2022-08-28T23:12:35.018Z,5.78
2022-08-28T23:16:00.230Z,7.85
2022-08-28T23:19:14.938Z,8.07
2022-08-28T23:22:33.767Z,7.93
2022-08-28T23:33:37.672Z,8.98
2022-08-28T23:36:52.562Z,6.35
2022-08-28T23:40:11.602Z,7.13
2022-08-28T23:43:24.034Z,7.85
2022-08-28T23:46:31.939Z,6.13
2022-08-28T23:53:04.301Z,8.25
2022-08-28T23:56:28.239Z,9.32
2022-08-28T23:59:38.851Z,7.82
